sensor_id;sensor_type;location;lat;lon;timestamp;temperature;humidity
1025;DHT22;501;48.214;11.350;2023-04-30T00:00:51;12.30;51.40
1025;DHT22;501;48.214;11.350;2023-04-30T00:03:17;12.30;51.50
1025;DHT22;501;48.214;11.350;2023-04-30T00:05:42;12.20;51.60
1025;DHT22;501;48.214;11.350;2023-04-30T00:08:08;12.20;51.40
1025;DHT22;501;48.214;11.350;2023-04-30T00:10:33;12.20;51.50
1025;DHT22;501;48.214;11.350;2023-04-30T00:12:59;12.20;52.10
1025;DHT22;501;48.214;11.350;2023-04-30T00:15:25;12.10;52.40
1025;DHT22;501;48.214;11.350;2023-04-30T00:17:50;12.00;52.60
1025;DHT22;501;48.214;11.350;2023-04-30T00:20:16;12.00;53.10
1025;DHT22;501;48.214;11.350;2023-04-30T00:22:42;12.00;53.30
1025;DHT22;501;48.214;11.350;2023-04-30T00:25:08;12.00;54.10
1025;DHT22;501;48.214;11.350;2023-04-30T00:27:34;11.90;54.10
1025;DHT22;501;48.214;11.350;2023-04-30T00:29:59;11.90;54.50
1025;DHT22;501;48.214;11.350;2023-04-30T00:32:25;11.90;54.90
1025;DHT22;501;48.214;11.350;2023-04-30T00:34:51;11.90;54.00
1025;DHT22;501;48.214;11.350;2023-04-30T00:37:16;11.90;54.30
1025;DHT22;501;48.214;11.350;2023-04-30T00:39:42;11.90;54.50
1025;DHT22;501;48.214;11.350;2023-04-30T00:42:07;11.90;54.10
1025;DHT22;501;48.214;11.350;2023-04-30T00:44:33;11.90;53.90
1025;DHT22;501;48.214;11.350;2023-04-30T00:46:59;11.90;53.60
1025;DHT22;501;48.214;11.350;2023-04-30T00:49:24;11.90;54.50
1025;DHT22;501;48.214;11.350;2023-04-30T00:51:50;11.90;53.50
1025;DHT22;501;48.214;11.350;2023-04-30T00:54:17;11.90;53.60
1025;DHT22;501;48.214;11.350;2023-04-30T00:56:44;11.90;53.70
1025;DHT22;501;48.214;11.350;2023-04-30T00:59:12;11.90;53.40
1025;DHT22;501;48.214;11.350;2023-04-30T01:01:38;11.90;53.80
1025;DHT22;501;48.214;11.350;2023-04-30T01:04:04;11.90;53.90
1025;DHT22;501;48.214;11.350;2023-04-30T01:06:30;11.90;54.10
1025;DHT22;501;48.214;11.350;2023-04-30T01:08:56;11.90;54.20
1025;DHT22;501;48.214;11.350;2023-04-30T01:14:27;11.90;54.00
1025;DHT22;501;48.214;11.350;2023-04-30T01:17:12;11.90;53.90
1025;DHT22;501;48.214;11.350;2023-04-30T01:19:42;11.80;54.10
1025;DHT22;501;48.214;11.350;2023-04-30T01:22:12;11.80;54.50
1025;DHT22;501;48.214;11.350;2023-04-30T01:27:44;11.80;53.80
1025;DHT22;501;48.214;11.350;2023-04-30T01:30:11;11.80;53.70
1025;DHT22;501;48.214;11.350;2023-04-30T01:32:37;11.80;54.10
1025;DHT22;501;48.214;11.350;2023-04-30T01:35:03;11.80;53.30
1025;DHT22;501;48.214;11.350;2023-04-30T01:40:43;11.90;54.10
1025;DHT22;501;48.214;11.350;2023-04-30T01:43:46;11.80;54.00
1025;DHT22;501;48.214;11.350;2023-04-30T01:46:25;11.90;54.70
1025;DHT22;501;48.214;11.350;2023-04-30T01:49:12;11.90;55.00
1025;DHT22;501;48.214;11.350;2023-04-30T01:51:41;11.90;54.70
1025;DHT22;501;48.214;11.350;2023-04-30T01:54:22;11.90;54.80
1025;DHT22;501;48.214;11.350;2023-04-30T01:57:06;11.90;54.30
1025;DHT22;501;48.214;11.350;2023-04-30T01:59:34;11.90;54.30
1025;DHT22;501;48.214;11.350;2023-04-30T02:02:00;11.90;54.30
1025;DHT22;501;48.214;11.350;2023-04-30T02:04:26;11.80;54.40
1025;DHT22;501;48.214;11.350;2023-04-30T02:06:52;11.90;54.10
1025;DHT22;501;48.214;11.350;2023-04-30T02:09:18;11.80;54.50
1025;DHT22;501;48.214;11.350;2023-04-30T02:11:43;11.80;54.30
1025;DHT22;501;48.214;11.350;2023-04-30T02:14:09;11.80;54.30
1025;DHT22;501;48.214;11.350;2023-04-30T02:16:34;11.80;54.50
1025;DHT22;501;48.214;11.350;2023-04-30T02:19:01;11.80;54.30
1025;DHT22;501;48.214;11.350;2023-04-30T02:21:26;11.80;54.00
1025;DHT22;501;48.214;11.350;2023-04-30T02:23:52;11.80;53.90
1025;DHT22;501;48.214;11.350;2023-04-30T02:26:19;11.80;54.20
1025;DHT22;501;48.214;11.350;2023-04-30T02:28:45;11.80;53.50
1025;DHT22;501;48.214;11.350;2023-04-30T02:31:11;11.80;53.40
1025;DHT22;501;48.214;11.350;2023-04-30T02:33:36;11.70;54.50
1025;DHT22;501;48.214;11.350;2023-04-30T02:36:02;11.70;54.10
1025;DHT22;501;48.214;11.350;2023-04-30T02:38:28;11.70;54.10
1025;DHT22;501;48.214;11.350;2023-04-30T02:40:53;11.70;54.00
1025;DHT22;501;48.214;11.350;2023-04-30T02:43:19;11.60;54.30
1025;DHT22;501;48.214;11.350;2023-04-30T02:45:45;11.60;54.30
1025;DHT22;501;48.214;11.350;2023-04-30T02:48:10;11.60;54.40
1025;DHT22;501;48.214;11.350;2023-04-30T02:50:36;11.50;54.70
1025;DHT22;501;48.214;11.350;2023-04-30T02:53:01;11.50;54.40
1025;DHT22;501;48.214;11.350;2023-04-30T02:55:27;11.50;54.50
1025;DHT22;501;48.214;11.350;2023-04-30T02:57:53;11.40;55.40
1025;DHT22;501;48.214;11.350;2023-04-30T03:00:18;11.40;55.20
1025;DHT22;501;48.214;11.350;2023-04-30T03:02:44;11.50;55.00
1025;DHT22;501;48.214;11.350;2023-04-30T03:05:10;11.40;54.60
1025;DHT22;501;48.214;11.350;2023-04-30T03:07:36;11.40;55.00
1025;DHT22;501;48.214;11.350;2023-04-30T03:10:01;11.40;55.20
1025;DHT22;501;48.214;11.350;2023-04-30T03:12:27;11.40;55.20
1025;DHT22;501;48.214;11.350;2023-04-30T03:14:52;11.40;55.20
1025;DHT22;501;48.214;11.350;2023-04-30T03:17:18;11.50;55.60
1025;DHT22;501;48.214;11.350;2023-04-30T03:19:44;11.50;55.20
1025;DHT22;501;48.214;11.350;2023-04-30T03:22:10;11.40;55.00
1025;DHT22;501;48.214;11.350;2023-04-30T03:24:36;11.40;55.10
1025;DHT22;501;48.214;11.350;2023-04-30T03:27:01;11.40;55.00
1025;DHT22;501;48.214;11.350;2023-04-30T03:29:27;11.40;55.00
1025;DHT22;501;48.214;11.350;2023-04-30T03:31:53;11.40;54.80
1025;DHT22;501;48.214;11.350;2023-04-30T03:34:19;11.30;54.80
1025;DHT22;501;48.214;11.350;2023-04-30T03:36:44;11.30;54.50
1025;DHT22;501;48.214;11.350;2023-04-30T03:39:10;11.30;54.50
1025;DHT22;501;48.214;11.350;2023-04-30T03:41:36;11.30;54.30
1025;DHT22;501;48.214;11.350;2023-04-30T03:44:01;11.20;54.50
1025;DHT22;501;48.214;11.350;2023-04-30T03:46:27;11.20;54.60
1025;DHT22;501;48.214;11.350;2023-04-30T03:48:53;11.20;54.50
1025;DHT22;501;48.214;11.350;2023-04-30T03:51:19;11.10;54.70
1025;DHT22;501;48.214;11.350;2023-04-30T03:53:45;11.10;54.70
1025;DHT22;501;48.214;11.350;2023-04-30T03:56:12;11.10;54.70
1025;DHT22;501;48.214;11.350;2023-04-30T03:58:38;11.10;54.30
1025;DHT22;501;48.214;11.350;2023-04-30T04:01:04;11.00;54.70
1025;DHT22;501;48.214;11.350;2023-04-30T04:03:30;11.00;55.00
1025;DHT22;501;48.214;11.350;2023-04-30T04:05:55;11.00;55.10
1025;DHT22;501;48.214;11.350;2023-04-30T04:08:21;10.90;55.30
1025;DHT22;501;48.214;11.350;2023-04-30T04:10:46;10.90;55.50
1025;DHT22;501;48.214;11.350;2023-04-30T04:13:12;10.90;55.70
1025;DHT22;501;48.214;11.350;2023-04-30T04:15:38;10.90;55.60
1025;DHT22;501;48.214;11.350;2023-04-30T04:18:03;11.00;55.90
1025;DHT22;501;48.214;11.350;2023-04-30T04:20:31;11.00;55.80
1025;DHT22;501;48.214;11.350;2023-04-30T04:22:56;11.00;55.30
1025;DHT22;501;48.214;11.350;2023-04-30T04:25:22;11.00;55.70
1025;DHT22;501;48.214;11.350;2023-04-30T04:27:50;11.00;55.60
1025;DHT22;501;48.214;11.350;2023-04-30T04:30:16;11.00;55.50
1025;DHT22;501;48.214;11.350;2023-04-30T04:32:42;11.00;55.40
1025;DHT22;501;48.214;11.350;2023-04-30T04:35:15;11.00;55.30
1025;DHT22;501;48.214;11.350;2023-04-30T04:37:42;11.10;55.60
1025;DHT22;501;48.214;11.350;2023-04-30T04:40:08;11.10;55.50
1025;DHT22;501;48.214;11.350;2023-04-30T04:42:36;11.10;55.40
1025;DHT22;501;48.214;11.350;2023-04-30T04:45:07;11.10;55.20
1025;DHT22;501;48.214;11.350;2023-04-30T04:47:32;11.10;55.20
1025;DHT22;501;48.214;11.350;2023-04-30T04:49:58;11.10;55.00
1025;DHT22;501;48.214;11.350;2023-04-30T04:52:24;11.10;55.10
1025;DHT22;501;48.214;11.350;2023-04-30T04:54:50;11.10;55.00
1025;DHT22;501;48.214;11.350;2023-04-30T04:57:16;11.10;54.80
1025;DHT22;501;48.214;11.350;2023-04-30T04:59:41;11.20;54.40
1025;DHT22;501;48.214;11.350;2023-04-30T05:02:07;11.20;54.80
1025;DHT22;501;48.214;11.350;2023-04-30T05:04:32;11.20;54.80
1025;DHT22;501;48.214;11.350;2023-04-30T05:06:58;11.20;54.10
1025;DHT22;501;48.214;11.350;2023-04-30T05:09:23;11.20;53.80
1025;DHT22;501;48.214;11.350;2023-04-30T05:11:50;11.20;53.40
1025;DHT22;501;48.214;11.350;2023-04-30T05:14:15;11.20;53.50
1025;DHT22;501;48.214;11.350;2023-04-30T05:16:41;11.30;54.10
1025;DHT22;501;48.214;11.350;2023-04-30T05:19:06;11.20;53.90
1025;DHT22;501;48.214;11.350;2023-04-30T05:21:34;11.20;54.20
1025;DHT22;501;48.214;11.350;2023-04-30T05:23:59;11.30;54.50
1025;DHT22;501;48.214;11.350;2023-04-30T05:26:25;11.30;54.30
1025;DHT22;501;48.214;11.350;2023-04-30T05:28:51;11.30;54.50
1025;DHT22;501;48.214;11.350;2023-04-30T05:31:17;11.40;53.90
1025;DHT22;501;48.214;11.350;2023-04-30T05:33:43;11.40;54.00
1025;DHT22;501;48.214;11.350;2023-04-30T05:36:09;11.40;53.60
1025;DHT22;501;48.214;11.350;2023-04-30T05:38:35;11.50;53.80
1025;DHT22;501;48.214;11.350;2023-04-30T05:41:01;11.50;53.20
1025;DHT22;501;48.214;11.350;2023-04-30T05:43:26;11.50;52.60
1025;DHT22;501;48.214;11.350;2023-04-30T05:45:52;11.50;52.20
1025;DHT22;501;48.214;11.350;2023-04-30T05:48:18;11.50;52.10
1025;DHT22;501;48.214;11.350;2023-04-30T05:50:43;11.50;51.40
1025;DHT22;501;48.214;11.350;2023-04-30T05:53:09;11.50;51.20
1025;DHT22;501;48.214;11.350;2023-04-30T05:55:34;11.50;50.90
1025;DHT22;501;48.214;11.350;2023-04-30T05:58:00;11.50;50.50
1025;DHT22;501;48.214;11.350;2023-04-30T06:00:26;11.50;51.20
1025;DHT22;501;48.214;11.350;2023-04-30T06:02:52;11.50;51.60
1025;DHT22;501;48.214;11.350;2023-04-30T06:05:18;11.50;52.40
1025;DHT22;501;48.214;11.350;2023-04-30T06:07:43;11.50;51.90
1025;DHT22;501;48.214;11.350;2023-04-30T06:10:09;11.50;51.50
1025;DHT22;501;48.214;11.350;2023-04-30T06:12:35;11.50;51.70
1025;DHT22;501;48.214;11.350;2023-04-30T06:15:00;11.50;52.10
1025;DHT22;501;48.214;11.350;2023-04-30T06:17:26;11.50;52.50
1025;DHT22;501;48.214;11.350;2023-04-30T06:19:52;11.60;51.70
1025;DHT22;501;48.214;11.350;2023-04-30T06:22:17;11.60;51.00
1025;DHT22;501;48.214;11.350;2023-04-30T06:24:43;11.60;51.40
1025;DHT22;501;48.214;11.350;2023-04-30T06:27:09;11.70;52.20
1025;DHT22;501;48.214;11.350;2023-04-30T06:29:35;11.70;51.50
1025;DHT22;501;48.214;11.350;2023-04-30T06:32:00;11.80;51.30
1025;DHT22;501;48.214;11.350;2023-04-30T06:34:26;11.80;51.10
1025;DHT22;501;48.214;11.350;2023-04-30T06:36:52;11.90;50.60
1025;DHT22;501;48.214;11.350;2023-04-30T06:39:17;11.90;50.10
1025;DHT22;501;48.214;11.350;2023-04-30T06:41:43;11.80;50.40
1025;DHT22;501;48.214;11.350;2023-04-30T06:44:09;11.80;49.90
1025;DHT22;501;48.214;11.350;2023-04-30T06:46:35;11.90;49.80
1025;DHT22;501;48.214;11.350;2023-04-30T06:49:00;11.90;50.70
1025;DHT22;501;48.214;11.350;2023-04-30T06:51:26;12.00;50.40
1025;DHT22;501;48.214;11.350;2023-04-30T06:53:52;12.10;50.30
1025;DHT22;501;48.214;11.350;2023-04-30T06:56:17;12.20;48.10
1025;DHT22;501;48.214;11.350;2023-04-30T06:58:43;12.30;48.70
1025;DHT22;501;48.214;11.350;2023-04-30T07:01:09;12.40;47.80
1025;DHT22;501;48.214;11.350;2023-04-30T07:03:35;12.40;47.50
1025;DHT22;501;48.214;11.350;2023-04-30T07:06:01;12.40;45.90
1025;DHT22;501;48.214;11.350;2023-04-30T07:08:26;12.50;46.30
1025;DHT22;501;48.214;11.350;2023-04-30T07:10:52;12.50;47.20
1025;DHT22;501;48.214;11.350;2023-04-30T07:13:18;12.50;45.40
1025;DHT22;501;48.214;11.350;2023-04-30T07:15:43;12.60;45.40
1025;DHT22;501;48.214;11.350;2023-04-30T07:18:09;12.70;44.50
1025;DHT22;501;48.214;11.350;2023-04-30T07:20:35;12.70;44.90
1025;DHT22;501;48.214;11.350;2023-04-30T07:23:01;12.70;45.00
1025;DHT22;501;48.214;11.350;2023-04-30T07:25:27;12.80;44.40
1025;DHT22;501;48.214;11.350;2023-04-30T07:27:53;12.90;44.60
1025;DHT22;501;48.214;11.350;2023-04-30T07:30:19;12.90;45.30
1025;DHT22;501;48.214;11.350;2023-04-30T07:32:45;13.00;45.80
1025;DHT22;501;48.214;11.350;2023-04-30T07:35:12;13.00;45.40
1025;DHT22;501;48.214;11.350;2023-04-30T07:37:38;13.00;45.40
1025;DHT22;501;48.214;11.350;2023-04-30T07:40:04;13.10;45.90
1025;DHT22;501;48.214;11.350;2023-04-30T07:42:30;13.10;44.10
1025;DHT22;501;48.214;11.350;2023-04-30T07:44:56;13.10;44.80
1025;DHT22;501;48.214;11.350;2023-04-30T07:47:22;13.00;45.00
1025;DHT22;501;48.214;11.350;2023-04-30T07:49:48;13.10;43.60
1025;DHT22;501;48.214;11.350;2023-04-30T07:52:13;13.10;45.40
1025;DHT22;501;48.214;11.350;2023-04-30T07:54:39;13.10;44.30
1025;DHT22;501;48.214;11.350;2023-04-30T07:57:05;13.10;46.10
1025;DHT22;501;48.214;11.350;2023-04-30T07:59:31;13.10;46.50
1025;DHT22;501;48.214;11.350;2023-04-30T08:01:57;13.20;45.20
1025;DHT22;501;48.214;11.350;2023-04-30T08:04:23;13.30;45.50
1025;DHT22;501;48.214;11.350;2023-04-30T08:06:49;13.30;45.20
1025;DHT22;501;48.214;11.350;2023-04-30T08:09:14;13.30;44.30
1025;DHT22;501;48.214;11.350;2023-04-30T08:11:41;13.40;45.00
1025;DHT22;501;48.214;11.350;2023-04-30T08:14:06;13.40;45.30
1025;DHT22;501;48.214;11.350;2023-04-30T08:16:32;13.50;44.50
1025;DHT22;501;48.214;11.350;2023-04-30T08:18:58;13.60;44.30
1025;DHT22;501;48.214;11.350;2023-04-30T08:21:24;13.70;43.90
1025;DHT22;501;48.214;11.350;2023-04-30T08:23:53;13.80;43.60
1025;DHT22;501;48.214;11.350;2023-04-30T08:26:18;13.90;43.70
1025;DHT22;501;48.214;11.350;2023-04-30T08:28:44;13.90;43.60
1025;DHT22;501;48.214;11.350;2023-04-30T08:31:09;14.00;43.40
1025;DHT22;501;48.214;11.350;2023-04-30T08:33:35;14.10;43.30
1025;DHT22;501;48.214;11.350;2023-04-30T08:36:01;14.10;42.50
1025;DHT22;501;48.214;11.350;2023-04-30T08:38:27;14.30;43.00
1025;DHT22;501;48.214;11.350;2023-04-30T08:41:11;14.30;42.10
1025;DHT22;501;48.214;11.350;2023-04-30T08:43:37;14.40;43.70
1025;DHT22;501;48.214;11.350;2023-04-30T08:46:04;14.40;42.00
1025;DHT22;501;48.214;11.350;2023-04-30T08:48:30;14.40;42.00
1025;DHT22;501;48.214;11.350;2023-04-30T08:51:01;14.50;40.70
1025;DHT22;501;48.214;11.350;2023-04-30T08:53:29;14.40;39.30
1025;DHT22;501;48.214;11.350;2023-04-30T08:55:55;14.40;41.00
1025;DHT22;501;48.214;11.350;2023-04-30T08:58:21;14.40;40.00
1025;DHT22;501;48.214;11.350;2023-04-30T09:00:47;14.40;40.60
1025;DHT22;501;48.214;11.350;2023-04-30T09:03:13;14.50;39.70
1025;DHT22;501;48.214;11.350;2023-04-30T09:05:39;14.60;40.70
1025;DHT22;501;48.214;11.350;2023-04-30T09:08:06;14.60;41.00
1025;DHT22;501;48.214;11.350;2023-04-30T09:10:33;14.80;40.40
1025;DHT22;501;48.214;11.350;2023-04-30T09:13:01;14.80;40.40
1025;DHT22;501;48.214;11.350;2023-04-30T09:15:28;14.90;40.20
1025;DHT22;501;48.214;11.350;2023-04-30T09:18:11;14.90;39.10
1025;DHT22;501;48.214;11.350;2023-04-30T09:20:53;15.10;38.60
1025;DHT22;501;48.214;11.350;2023-04-30T09:23:19;15.10;38.20
1025;DHT22;501;48.214;11.350;2023-04-30T09:25:45;15.20;37.90
1025;DHT22;501;48.214;11.350;2023-04-30T09:28:12;15.30;37.90
1025;DHT22;501;48.214;11.350;2023-04-30T09:30:39;15.30;37.00
1025;DHT22;501;48.214;11.350;2023-04-30T09:33:05;15.40;36.70
1025;DHT22;501;48.214;11.350;2023-04-30T09:35:32;15.50;37.10
1025;DHT22;501;48.214;11.350;2023-04-30T09:37:59;15.50;36.10
1025;DHT22;501;48.214;11.350;2023-04-30T09:40:36;15.60;37.20
1025;DHT22;501;48.214;11.350;2023-04-30T09:43:03;15.70;36.70
1025;DHT22;501;48.214;11.350;2023-04-30T09:45:44;15.70;35.90
1025;DHT22;501;48.214;11.350;2023-04-30T09:48:16;15.70;35.50
1025;DHT22;501;48.214;11.350;2023-04-30T09:50:43;15.70;35.30
1025;DHT22;501;48.214;11.350;2023-04-30T09:53:11;15.70;35.60
1025;DHT22;501;48.214;11.350;2023-04-30T09:55:43;15.60;36.20
1025;DHT22;501;48.214;11.350;2023-04-30T09:58:10;15.60;34.70
1025;DHT22;501;48.214;11.350;2023-04-30T10:00:37;15.60;36.20
1025;DHT22;501;48.214;11.350;2023-04-30T10:03:11;15.50;35.70
1025;DHT22;501;48.214;11.350;2023-04-30T10:05:43;15.40;35.10
1025;DHT22;501;48.214;11.350;2023-04-30T10:08:21;15.40;35.80
1025;DHT22;501;48.214;11.350;2023-04-30T10:11:03;15.30;35.90
1025;DHT22;501;48.214;11.350;2023-04-30T10:16:29;15.40;35.80
1025;DHT22;501;48.214;11.350;2023-04-30T10:19:02;15.30;35.90
1025;DHT22;501;48.214;11.350;2023-04-30T10:21:30;15.40;36.00
1025;DHT22;501;48.214;11.350;2023-04-30T10:23:57;15.50;36.10
1025;DHT22;501;48.214;11.350;2023-04-30T10:26:23;15.60;36.20
1025;DHT22;501;48.214;11.350;2023-04-30T10:28:49;15.70;36.30
1025;DHT22;501;48.214;11.350;2023-04-30T10:31:16;15.80;36.70
1025;DHT22;501;48.214;11.350;2023-04-30T10:36:53;16.00;35.50
1025;DHT22;501;48.214;11.350;2023-04-30T10:39:22;16.10;35.80
1025;DHT22;501;48.214;11.350;2023-04-30T10:41:48;16.10;35.00
1025;DHT22;501;48.214;11.350;2023-04-30T10:44:16;16.20;35.60
1025;DHT22;501;48.214;11.350;2023-04-30T10:46:45;16.30;36.70
1025;DHT22;501;48.214;11.350;2023-04-30T10:49:11;16.20;34.60
1025;DHT22;501;48.214;11.350;2023-04-30T10:51:49;16.20;35.50
1025;DHT22;501;48.214;11.350;2023-04-30T10:54:29;16.10;34.20
1025;DHT22;501;48.214;11.350;2023-04-30T10:57:12;16.10;35.00
1025;DHT22;501;48.214;11.350;2023-04-30T10:59:49;16.00;33.90
1025;DHT22;501;48.214;11.350;2023-04-30T11:02:16;16.10;34.70
1025;DHT22;501;48.214;11.350;2023-04-30T11:05:16;16.20;34.10
1025;DHT22;501;48.214;11.350;2023-04-30T11:07:50;16.30;34.30
1025;DHT22;501;48.214;11.350;2023-04-30T11:10:23;16.40;34.00
1025;DHT22;501;48.214;11.350;2023-04-30T11:12:51;16.50;33.20
1025;DHT22;501;48.214;11.350;2023-04-30T11:15:19;16.60;34.10
1025;DHT22;501;48.214;11.350;2023-04-30T11:17:48;16.80;34.40
1025;DHT22;501;48.214;11.350;2023-04-30T11:20:23;17.00;33.10
1025;DHT22;501;48.214;11.350;2023-04-30T11:23:09;17.00;33.20
1025;DHT22;501;48.214;11.350;2023-04-30T11:25:45;17.10;33.40
1025;DHT22;501;48.214;11.350;2023-04-30T11:28:19;17.20;30.80
1025;DHT22;501;48.214;11.350;2023-04-30T11:30:55;17.20;30.20
1025;DHT22;501;48.214;11.350;2023-04-30T11:33:23;17.20;30.70
1025;DHT22;501;48.214;11.350;2023-04-30T11:35:49;17.20;31.20
1025;DHT22;501;48.214;11.350;2023-04-30T11:38:35;17.30;31.50
1025;DHT22;501;48.214;11.350;2023-04-30T11:41:02;17.30;30.70
1025;DHT22;501;48.214;11.350;2023-04-30T11:43:30;17.40;30.40
1025;DHT22;501;48.214;11.350;2023-04-30T11:46:08;17.50;30.50
1025;DHT22;501;48.214;11.350;2023-04-30T11:48:39;17.60;30.00
1025;DHT22;501;48.214;11.350;2023-04-30T11:51:16;17.90;31.90
1025;DHT22;501;48.214;11.350;2023-04-30T11:53:42;18.20;31.00
1025;DHT22;501;48.214;11.350;2023-04-30T11:56:09;18.60;31.30
1025;DHT22;501;48.214;11.350;2023-04-30T11:58:36;18.90;29.90
1025;DHT22;501;48.214;11.350;2023-04-30T12:01:06;19.00;29.40
1025;DHT22;501;48.214;11.350;2023-04-30T12:03:42;19.10;29.30
1025;DHT22;501;48.214;11.350;2023-04-30T12:08:48;19.30;28.70
1025;DHT22;501;48.214;11.350;2023-04-30T12:11:24;19.20;27.90
1025;DHT22;501;48.214;11.350;2023-04-30T12:13:55;19.00;29.30
1025;DHT22;501;48.214;11.350;2023-04-30T12:16:26;18.90;28.70
1025;DHT22;501;48.214;11.350;2023-04-30T12:18:52;18.80;28.40
1025;DHT22;501;48.214;11.350;2023-04-30T12:21:19;18.80;28.00
1025;DHT22;501;48.214;11.350;2023-04-30T12:23:45;18.70;27.90
1025;DHT22;501;48.214;11.350;2023-04-30T12:26:10;18.60;28.10
1025;DHT22;501;48.214;11.350;2023-04-30T12:28:36;18.50;28.50
1025;DHT22;501;48.214;11.350;2023-04-30T12:31:02;18.40;28.00
1025;DHT22;501;48.214;11.350;2023-04-30T12:33:30;18.20;27.80
1025;DHT22;501;48.214;11.350;2023-04-30T12:35:56;18.10;28.10
1025;DHT22;501;48.214;11.350;2023-04-30T12:38:25;18.00;28.40
1025;DHT22;501;48.214;11.350;2023-04-30T12:40:50;17.90;28.10
1025;DHT22;501;48.214;11.350;2023-04-30T12:43:17;17.90;28.00
1025;DHT22;501;48.214;11.350;2023-04-30T12:45:47;18.00;28.00
1025;DHT22;501;48.214;11.350;2023-04-30T12:48:15;18.10;27.70
1025;DHT22;501;48.214;11.350;2023-04-30T12:50:41;18.10;27.70
1025;DHT22;501;48.214;11.350;2023-04-30T12:53:07;18.20;28.40
1025;DHT22;501;48.214;11.350;2023-04-30T12:55:33;18.20;27.90
1025;DHT22;501;48.214;11.350;2023-04-30T12:58:12;18.40;28.00
1025;DHT22;501;48.214;11.350;2023-04-30T13:00:51;18.60;28.00
1025;DHT22;501;48.214;11.350;2023-04-30T13:03:18;19.00;27.50
1025;DHT22;501;48.214;11.350;2023-04-30T13:05:49;19.40;26.60
1025;DHT22;501;48.214;11.350;2023-04-30T13:08:15;19.60;26.70
1025;DHT22;501;48.214;11.350;2023-04-30T13:10:41;19.80;26.40
1025;DHT22;501;48.214;11.350;2023-04-30T13:13:07;19.90;26.80
1025;DHT22;501;48.214;11.350;2023-04-30T13:15:32;20.10;25.90
1025;DHT22;501;48.214;11.350;2023-04-30T13:17:58;20.20;25.30
1025;DHT22;501;48.214;11.350;2023-04-30T13:20:23;20.10;25.70
1025;DHT22;501;48.214;11.350;2023-04-30T13:22:50;19.90;26.50
1025;DHT22;501;48.214;11.350;2023-04-30T13:25:16;19.80;26.80
1025;DHT22;501;48.214;11.350;2023-04-30T13:27:42;19.80;27.30
1025;DHT22;501;48.214;11.350;2023-04-30T13:30:09;20.00;27.00
1025;DHT22;501;48.214;11.350;2023-04-30T13:32:34;20.30;26.30
1025;DHT22;501;48.214;11.350;2023-04-30T13:35:01;20.50;25.50
1025;DHT22;501;48.214;11.350;2023-04-30T13:37:27;20.70;24.60
1025;DHT22;501;48.214;11.350;2023-04-30T13:39:55;20.70;23.70
1025;DHT22;501;48.214;11.350;2023-04-30T13:42:21;20.50;24.30
1025;DHT22;501;48.214;11.350;2023-04-30T13:44:47;20.20;24.40
1025;DHT22;501;48.214;11.350;2023-04-30T13:47:14;20.10;24.90
1025;DHT22;501;48.214;11.350;2023-04-30T13:49:40;20.00;25.80
1025;DHT22;501;48.214;11.350;2023-04-30T13:52:06;20.00;24.50
1025;DHT22;501;48.214;11.350;2023-04-30T13:54:31;20.10;24.40
1025;DHT22;501;48.214;11.350;2023-04-30T13:56:58;20.20;25.00
1025;DHT22;501;48.214;11.350;2023-04-30T13:59:26;20.30;24.90
1025;DHT22;501;48.214;11.350;2023-04-30T14:01:53;20.40;24.70
1025;DHT22;501;48.214;11.350;2023-04-30T14:04:18;20.50;23.90
1025;DHT22;501;48.214;11.350;2023-04-30T14:06:44;20.40;23.50
1025;DHT22;501;48.214;11.350;2023-04-30T14:09:10;20.20;23.40
1025;DHT22;501;48.214;11.350;2023-04-30T14:11:36;19.90;23.90
1025;DHT22;501;48.214;11.350;2023-04-30T14:14:02;19.80;24.80
1025;DHT22;501;48.214;11.350;2023-04-30T14:16:27;19.80;25.00
1025;DHT22;501;48.214;11.350;2023-04-30T14:18:54;19.80;25.00
1025;DHT22;501;48.214;11.350;2023-04-30T14:21:20;19.90;24.40
1025;DHT22;501;48.214;11.350;2023-04-30T14:23:46;19.90;24.10
1025;DHT22;501;48.214;11.350;2023-04-30T14:26:12;19.90;24.50
1025;DHT22;501;48.214;11.350;2023-04-30T14:28:37;19.80;24.50
1025;DHT22;501;48.214;11.350;2023-04-30T14:31:03;19.90;24.20
1025;DHT22;501;48.214;11.350;2023-04-30T14:33:30;19.80;25.20
1025;DHT22;501;48.214;11.350;2023-04-30T14:35:57;19.90;24.20
1025;DHT22;501;48.214;11.350;2023-04-30T14:38:24;20.00;24.70
1025;DHT22;501;48.214;11.350;2023-04-30T14:40:50;19.90;24.70
1025;DHT22;501;48.214;11.350;2023-04-30T14:43:16;19.80;25.50
1025;DHT22;501;48.214;11.350;2023-04-30T14:45:42;19.80;25.70
1025;DHT22;501;48.214;11.350;2023-04-30T14:48:09;19.70;25.40
1025;DHT22;501;48.214;11.350;2023-04-30T14:50:34;19.50;25.70
1025;DHT22;501;48.214;11.350;2023-04-30T14:53:00;19.40;26.20
1025;DHT22;501;48.214;11.350;2023-04-30T14:55:25;19.10;26.10
1025;DHT22;501;48.214;11.350;2023-04-30T14:57:51;18.90;25.60
1025;DHT22;501;48.214;11.350;2023-04-30T15:00:17;18.80;26.50
1025;DHT22;501;48.214;11.350;2023-04-30T15:02:43;18.80;26.70
1025;DHT22;501;48.214;11.350;2023-04-30T15:05:09;18.80;27.20
1025;DHT22;501;48.214;11.350;2023-04-30T15:07:34;18.70;26.60
1025;DHT22;501;48.214;11.350;2023-04-30T15:10:01;18.60;26.20
1025;DHT22;501;48.214;11.350;2023-04-30T15:12:27;18.50;26.50
1025;DHT22;501;48.214;11.350;2023-04-30T15:14:53;18.60;26.20
1025;DHT22;501;48.214;11.350;2023-04-30T15:17:18;18.80;26.10
1025;DHT22;501;48.214;11.350;2023-04-30T15:19:44;18.90;27.20
1025;DHT22;501;48.214;11.350;2023-04-30T15:22:10;19.10;26.40
1025;DHT22;501;48.214;11.350;2023-04-30T15:24:35;19.30;25.80
1025;DHT22;501;48.214;11.350;2023-04-30T15:27:01;19.40;25.40
1025;DHT22;501;48.214;11.350;2023-04-30T15:29:28;19.40;25.30
1025;DHT22;501;48.214;11.350;2023-04-30T15:31:54;19.40;25.20
1025;DHT22;501;48.214;11.350;2023-04-30T15:34:21;19.50;25.20
1025;DHT22;501;48.214;11.350;2023-04-30T15:36:47;19.50;24.70
1025;DHT22;501;48.214;11.350;2023-04-30T15:39:13;19.60;25.20
1025;DHT22;501;48.214;11.350;2023-04-30T15:41:38;19.60;24.80
1025;DHT22;501;48.214;11.350;2023-04-30T15:44:04;19.40;24.50
1025;DHT22;501;48.214;11.350;2023-04-30T15:46:30;19.30;25.00
1025;DHT22;501;48.214;11.350;2023-04-30T15:48:56;19.10;24.90
1025;DHT22;501;48.214;11.350;2023-04-30T15:51:22;19.00;25.80
1025;DHT22;501;48.214;11.350;2023-04-30T15:53:47;18.90;26.20
1025;DHT22;501;48.214;11.350;2023-04-30T15:56:13;18.80;26.00
1025;DHT22;501;48.214;11.350;2023-04-30T15:58:39;18.70;26.10
1025;DHT22;501;48.214;11.350;2023-04-30T16:01:04;18.60;26.00
1025;DHT22;501;48.214;11.350;2023-04-30T16:03:31;18.40;26.20
1025;DHT22;501;48.214;11.350;2023-04-30T16:05:57;18.30;26.70
1025;DHT22;501;48.214;11.350;2023-04-30T16:08:24;18.30;25.80
1025;DHT22;501;48.214;11.350;2023-04-30T16:10:49;18.20;26.30
1025;DHT22;501;48.214;11.350;2023-04-30T16:13:15;17.90;26.20
1025;DHT22;501;48.214;11.350;2023-04-30T16:15:40;17.90;26.60
1025;DHT22;501;48.214;11.350;2023-04-30T16:18:06;17.80;26.90
1025;DHT22;501;48.214;11.350;2023-04-30T16:20:32;17.70;26.80